createdAt,value
2017-02-24T00:00:02.704Z,929
2017-02-24T00:00:30.764Z,929
2017-02-24T00:00:58.690Z,929.02
2017-02-24T00:01:26.754Z,929
2017-02-24T00:01:54.794Z,928.99
2017-02-24T00:02:23.001Z,928.99
2017-02-24T00:02:51.057Z,929
2017-02-24T00:03:19.107Z,929.05
2017-02-24T00:03:47.302Z,929.01
2017-02-24T00:04:15.422Z,929.04
2017-02-24T00:04:43.624Z,929.09
2017-02-24T00:05:11.743Z,929.08
2017-02-24T00:05:39.899Z,929.08
2017-02-24T00:06:08.044Z,929.09
2017-02-24T00:06:36.243Z,929.08
2017-02-24T00:07:04.378Z,929.08
2017-02-24T00:07:32.681Z,929.09
2017-02-24T00:08:00.805Z,929.17
2017-02-24T00:08:28.771Z,929.14
2017-02-24T00:08:56.846Z,929.1
2017-02-24T00:09:24.887Z,929.12
2017-02-24T00:09:52.883Z,929.11
2017-02-24T00:10:20.940Z,929.1
2017-02-24T00:10:49.150Z,929.13
2017-02-24T00:11:17.219Z,929.14
2017-02-24T00:11:45.452Z,929.17
2017-02-24T00:12:13.792Z,929.1
2017-02-24T00:12:41.897Z,929.11
2017-02-24T00:13:10.008Z,929.11
2017-02-24T00:13:38.169Z,929.14
2017-02-24T00:14:06.203Z,929.11
2017-02-24T00:14:34.249Z,929.12
2017-02-24T00:15:02.427Z,929.12
2017-02-24T00:15:30.395Z,929.13
2017-02-24T00:15:58.497Z,929.11
2017-02-24T00:16:26.667Z,929.13
2017-02-24T00:16:54.605Z,929.12
2017-02-24T00:17:22.969Z,929.15
2017-02-24T00:17:51.128Z,929.18
2017-02-24T00:18:19.368Z,929.14
2017-02-24T00:18:47.452Z,929.19
2017-02-24T00:19:15.594Z,929.17
2017-02-24T00:19:43.872Z,929.17
2017-02-24T00:20:11.971Z,929.21
2017-02-24T00:20:40.216Z,929.2
2017-02-24T00:21:08.068Z,929.2
2017-02-24T00:21:36.268Z,929.18
2017-02-24T00:22:04.370Z,929.22
2017-02-24T00:22:32.500Z,929.24
2017-02-24T00:23:00.670Z,929.25
2017-02-24T00:23:28.613Z,929.3
2017-02-24T00:23:56.778Z,929.23
2017-02-24T00:24:24.998Z,929.29
2017-02-24T00:24:52.976Z,929.3
2017-02-24T00:25:21.130Z,929.31
2017-02-24T00:25:49.229Z,929.35
2017-02-24T00:26:17.265Z,929.41
2017-02-24T00:26:45.307Z,929.35
2017-02-24T00:27:13.531Z,929.37
2017-02-24T00:27:41.657Z,929.37
2017-02-24T00:28:09.903Z,929.46
2017-02-24T00:28:38.005Z,929.5
2017-02-24T00:29:06.219Z,929.5
2017-02-24T00:29:34.350Z,929.5
2017-02-24T00:30:02.459Z,929.54
2017-02-24T00:30:30.441Z,929.49
2017-02-24T00:30:58.577Z,929.51
2017-02-24T00:31:26.787Z,929.53
2017-02-24T00:31:55.008Z,929.57
2017-02-24T00:32:23.074Z,929.55
2017-02-24T00:32:51.121Z,929.52
2017-02-24T00:33:19.244Z,929.44
2017-02-24T00:33:47.447Z,929.56
2017-02-24T00:34:15.409Z,929.54
2017-02-24T00:34:43.550Z,929.54
2017-02-24T00:35:11.738Z,929.56
2017-02-24T00:35:39.947Z,929.54
2017-02-24T00:36:08.023Z,929.57
2017-02-24T00:36:36.114Z,929.55
2017-02-24T00:37:04.223Z,929.55
2017-02-24T00:37:32.689Z,929.57
2017-02-24T00:38:00.723Z,929.56
2017-02-24T00:38:28.877Z,929.53
2017-02-24T00:38:56.967Z,929.55
2017-02-24T00:39:25.079Z,929.53
2017-02-24T00:39:53.315Z,929.51
2017-02-24T00:40:21.461Z,929.52
2017-02-24T00:40:49.499Z,929.48
2017-02-24T00:41:17.726Z,929.51
2017-02-24T00:41:45.773Z,929.51
2017-02-24T00:42:13.807Z,929.53
2017-02-24T00:42:42.043Z,929.54
2017-02-24T00:43:10.207Z,929.59
2017-02-24T00:43:38.206Z,929.54
2017-02-24T00:44:06.329Z,929.61
2017-02-24T00:44:34.403Z,929.58
2017-02-24T00:45:02.559Z,929.59
2017-02-24T00:45:30.773Z,929.57
2017-02-24T00:45:58.818Z,929.58
2017-02-24T00:46:26.885Z,929.59
2017-02-24T00:46:55.011Z,929.6
2017-02-24T00:47:23.029Z,929.67
2017-02-24T00:47:51.353Z,929.69
2017-02-24T00:48:19.420Z,929.7
2017-02-24T00:48:47.478Z,929.72
2017-02-24T00:49:15.676Z,929.7
2017-02-24T00:49:43.807Z,929.68
2017-02-24T00:50:11.873Z,929.7
2017-02-24T00:50:39.975Z,929.72
2017-02-24T00:51:08.094Z,929.77
2017-02-24T00:51:36.240Z,929.89
2017-02-24T00:52:04.292Z,929.81
2017-02-24T00:52:32.352Z,929.75
2017-02-24T00:53:00.810Z,929.72
2017-02-24T00:53:28.971Z,929.73
2017-02-24T00:53:57.072Z,929.66
2017-02-24T00:54:25.172Z,929.68
2017-02-24T00:54:53.312Z,929.71
2017-02-24T00:55:21.346Z,929.67
2017-02-24T00:55:49.567Z,929.64
2017-02-24T00:56:18.035Z,929.66
2017-02-24T00:56:46.078Z,929.67
2017-02-24T00:57:14.207Z,929.62
2017-02-24T00:57:42.370Z,929.6
2017-02-24T00:58:10.530Z,929.58
2017-02-24T00:58:38.721Z,929.55
2017-02-24T00:59:06.837Z,929.58
2017-02-24T00:59:34.999Z,929.53
2017-02-24T01:00:03.175Z,929.52
2017-02-24T01:00:31.214Z,929.52
2017-02-24T01:00:59.383Z,929.52
2017-02-24T01:01:27.476Z,929.49
2017-02-24T01:01:55.562Z,929.52
2017-02-24T01:02:23.695Z,929.43
2017-02-24T01:02:51.631Z,929.46
2017-02-24T01:03:19.870Z,929.43
2017-02-24T01:03:48.057Z,929.5
2017-02-24T01:04:16.019Z,929.41
2017-02-24T01:04:44.141Z,929.43
2017-02-24T01:05:12.353Z,929.43
2017-02-24T01:05:40.411Z,929.4
2017-02-24T01:06:08.587Z,929.45
2017-02-24T01:06:36.669Z,929.4
2017-02-24T01:07:04.774Z,929.41
2017-02-24T01:07:33.001Z,929.38
2017-02-24T01:08:01.411Z,929.4
2017-02-24T01:08:29.278Z,929.4
2017-02-24T01:08:57.325Z,929.45
2017-02-24T01:09:25.415Z,929.39
2017-02-24T01:09:53.539Z,929.36
2017-02-24T01:10:21.660Z,929.43
2017-02-24T01:10:49.729Z,929.39
2017-02-24T01:11:17.911Z,929.41
2017-02-24T01:11:46.025Z,929.42
2017-02-24T01:12:14.047Z,929.41
2017-02-24T01:12:42.176Z,929.39
2017-02-24T01:13:10.377Z,929.4
2017-02-24T01:13:38.482Z,929.4
2017-02-24T01:14:06.645Z,929.41
2017-02-24T01:14:34.689Z,929.42
2017-02-24T01:15:02.759Z,929.43
2017-02-24T01:15:30.763Z,929.41
2017-02-24T01:15:58.845Z,929.44
2017-02-24T01:16:26.892Z,929.45
2017-02-24T01:16:55.009Z,929.45
2017-02-24T01:17:23.010Z,929.42
2017-02-24T01:17:51.296Z,929.44
2017-02-24T01:18:19.288Z,929.45
2017-02-24T01:18:47.472Z,929.43
2017-02-24T01:19:15.573Z,929.44
2017-02-24T01:19:43.713Z,929.46
2017-02-24T01:20:11.652Z,929.47
2017-02-24T01:20:39.888Z,929.47
2017-02-24T01:21:07.924Z,929.47
2017-02-24T01:21:35.804Z,929.48
2017-02-24T01:22:03.915Z,929.47
2017-02-24T01:22:32.104Z,929.42
2017-02-24T01:23:00.373Z,929.49
2017-02-24T01:23:28.441Z,929.46
2017-02-24T01:23:56.392Z,929.55
2017-02-24T01:24:24.369Z,929.54
2017-02-24T01:24:52.477Z,929.48
2017-02-24T01:25:20.635Z,929.49
2017-02-24T01:25:48.765Z,929.52
2017-02-24T01:26:16.968Z,929.53
2017-02-24T01:26:45.191Z,929.53
2017-02-24T01:27:13.283Z,929.53
2017-02-24T01:27:41.357Z,929.51
2017-02-24T01:28:09.808Z,929.52
2017-02-24T01:28:37.837Z,929.52
2017-02-24T01:29:05.969Z,929.56
2017-02-24T01:29:34.150Z,929.56
2017-02-24T01:30:02.163Z,929.57
2017-02-24T01:30:30.245Z,929.59
2017-02-24T01:30:58.370Z,929.67
2017-02-24T01:31:26.254Z,929.62
2017-02-24T01:31:54.436Z,929.62
2017-02-24T01:32:22.414Z,929.64
2017-02-24T01:32:50.412Z,929.65
2017-02-24T01:33:18.624Z,929.67
2017-02-24T01:33:46.667Z,929.64
2017-02-24T01:34:14.690Z,929.61
2017-02-24T01:34:42.730Z,929.56
2017-02-24T01:35:10.931Z,929.64
2017-02-24T01:35:39.075Z,929.57
2017-02-24T01:36:07.234Z,929.58
2017-02-24T01:36:35.218Z,929.58
2017-02-24T01:37:03.388Z,929.53
2017-02-24T01:37:31.567Z,929.57
2017-02-24T01:37:59.825Z,929.52
2017-02-24T01:38:28.154Z,929.51
2017-02-24T01:38:56.174Z,929.5
2017-02-24T01:39:24.258Z,929.5
2017-02-24T01:39:52.197Z,929.54
2017-02-24T01:40:20.216Z,929.51
2017-02-24T01:40:48.407Z,929.54
2017-02-24T01:41:16.527Z,929.52
2017-02-24T01:41:44.633Z,929.49
2017-02-24T01:42:12.759Z,929.51
2017-02-24T01:42:40.833Z,929.54
2017-02-24T01:43:09.128Z,929.5
2017-02-24T01:43:37.320Z,929.47
2017-02-24T01:44:05.443Z,929.47
2017-02-24T01:44:33.409Z,929.5
2017-02-24T01:45:01.518Z,929.52
2017-02-24T01:45:29.480Z,929.48
2017-02-24T01:45:57.634Z,929.49
2017-02-24T01:46:25.738Z,929.48
2017-02-24T01:46:53.915Z,929.54
2017-02-24T01:47:22.006Z,929.5
2017-02-24T01:47:50.246Z,929.53
2017-02-24T01:48:18.573Z,929.6
2017-02-24T01:48:46.795Z,929.62
2017-02-24T01:49:14.739Z,929.64
2017-02-24T01:49:42.866Z,929.67
2017-02-24T01:50:10.991Z,929.67
2017-02-24T01:50:39.094Z,929.67
2017-02-24T01:51:07.049Z,929.69
2017-02-24T01:51:35.186Z,929.71
2017-02-24T01:52:03.261Z,929.7
2017-02-24T01:52:31.386Z,929.74
2017-02-24T01:52:59.592Z,929.72
2017-02-24T01:53:27.872Z,929.76
2017-02-24T01:53:55.858Z,929.76
2017-02-24T01:54:23.877Z,929.78
2017-02-24T01:54:51.922Z,929.8
2017-02-24T01:55:19.918Z,929.81
2017-02-24T01:55:48.007Z,929.84
2017-02-24T01:56:16.139Z,929.78
2017-02-24T01:56:44.254Z,929.76
2017-02-24T01:57:12.453Z,929.75
2017-02-24T01:57:40.578Z,929.75
2017-02-24T01:58:08.807Z,929.75
2017-02-24T01:58:37.035Z,929.73
2017-02-24T01:59:05.260Z,929.75
2017-02-24T01:59:33.449Z,929.76
2017-02-24T02:00:01.644Z,929.76
2017-02-24T02:00:29.843Z,929.77
2017-02-24T02:00:58.003Z,929.77
2017-02-24T02:01:26.036Z,929.78
2017-02-24T02:01:54.207Z,929.78
2017-02-24T02:02:22.262Z,929.8
2017-02-24T02:02:50.353Z,929.81
2017-02-24T02:03:18.283Z,929.84
2017-02-24T02:03:46.434Z,929.83
2017-02-24T02:04:14.510Z,929.82
2017-02-24T02:04:42.563Z,929.8
2017-02-24T02:05:10.576Z,929.84
2017-02-24T02:05:38.785Z,929.87
2017-02-24T02:06:06.835Z,929.89
2017-02-24T02:06:34.921Z,929.9
2017-02-24T02:07:03.024Z,929.9
2017-02-24T02:07:31.169Z,929.89
2017-02-24T02:07:59.170Z,929.91
2017-02-24T02:08:27.640Z,929.92
2017-02-24T02:08:55.708Z,929.86
2017-02-24T02:09:23.739Z,929.87
2017-02-24T02:09:51.866Z,929.87
2017-02-24T02:10:19.945Z,929.87
2017-02-24T02:10:47.983Z,929.86
2017-02-24T02:11:16.052Z,929.81
2017-02-24T02:11:44.240Z,929.78
2017-02-24T02:12:12.286Z,929.81
2017-02-24T02:12:40.252Z,929.76
2017-02-24T02:13:08.444Z,929.76
2017-02-24T02:13:36.726Z,929.74
2017-02-24T02:14:04.771Z,929.74
2017-02-24T02:14:33.004Z,929.72
2017-02-24T02:15:01.142Z,929.69
2017-02-24T02:15:29.233Z,929.68
2017-02-24T02:15:57.300Z,929.65
2017-02-24T02:16:25.252Z,929.67
2017-02-24T02:16:53.264Z,929.64
2017-02-24T02:17:21.341Z,929.65
2017-02-24T02:17:49.476Z,929.65
2017-02-24T02:18:17.518Z,929.65
2017-02-24T02:18:45.846Z,929.66
2017-02-24T02:19:14.062Z,929.68
2017-02-24T02:19:42.148Z,929.69
2017-02-24T02:20:10.334Z,929.71
2017-02-24T02:20:38.522Z,929.73
2017-02-24T02:21:06.567Z,929.74
2017-02-24T02:21:34.671Z,929.76
2017-02-24T02:22:02.919Z,929.76
2017-02-24T02:22:31.164Z,929.77
2017-02-24T02:22:59.394Z,929.74
2017-02-24T02:23:27.442Z,929.8
2017-02-24T02:23:55.676Z,929.8
2017-02-24T02:24:23.753Z,929.84
2017-02-24T02:24:51.983Z,929.82
2017-02-24T02:25:20.013Z,929.87
2017-02-24T02:25:48.065Z,929.86
2017-02-24T02:26:16.227Z,929.86
2017-02-24T02:26:44.264Z,929.88
2017-02-24T02:27:12.439Z,929.89
2017-02-24T02:27:40.518Z,929.91
2017-02-24T02:28:08.628Z,929.89
2017-02-24T02:28:36.835Z,929.87
2017-02-24T02:29:04.948Z,929.9
2017-02-24T02:29:33.151Z,929.88
2017-02-24T02:30:01.099Z,929.86
2017-02-24T02:30:28.953Z,929.85
2017-02-24T02:30:57.086Z,929.85
2017-02-24T02:31:25.102Z,929.84
2017-02-24T02:31:53.315Z,929.85
2017-02-24T02:32:21.369Z,929.85
2017-02-24T02:32:49.574Z,929.86
2017-02-24T02:33:17.818Z,929.84
2017-02-24T02:33:46.058Z,929.86
2017-02-24T02:34:14.262Z,929.87
2017-02-24T02:34:42.380Z,929.87
2017-02-24T02:35:10.599Z,929.88
2017-02-24T02:35:38.821Z,929.86
2017-02-24T02:36:07.060Z,929.87
2017-02-24T02:36:35.202Z,929.87
2017-02-24T02:37:03.029Z,929.92
2017-02-24T02:37:31.099Z,929.91
2017-02-24T02:37:59.099Z,929.91
2017-02-24T02:38:27.341Z,929.96
2017-02-24T02:38:55.711Z,929.99
2017-02-24T02:39:23.782Z,929.98
2017-02-24T02:39:51.942Z,929.97
2017-02-24T02:40:19.961Z,930
2017-02-24T02:40:48.161Z,930.04
2017-02-24T02:41:16.067Z,930.04
2017-02-24T02:41:44.186Z,930.11
2017-02-24T02:42:12.327Z,930.11
2017-02-24T02:42:40.527Z,930.12
2017-02-24T02:43:08.674Z,930.12
2017-02-24T02:43:36.711Z,930.2
2017-02-24T02:44:04.996Z,930.22
2017-02-24T02:44:33.201Z,930.2
2017-02-24T02:45:01.291Z,930.21
2017-02-24T02:45:29.503Z,930.2
2017-02-24T02:45:57.649Z,930.2
2017-02-24T02:46:25.762Z,930.23
2017-02-24T02:46:53.930Z,930.19
2017-02-24T02:47:22.193Z,930.22
2017-02-24T02:47:50.433Z,930.21
2017-02-24T02:48:18.356Z,930.15
2017-02-24T02:48:46.426Z,930.18
2017-02-24T02:49:14.828Z,930.25
2017-02-24T02:49:42.688Z,930.25
2017-02-24T02:50:10.721Z,930.24
2017-02-24T02:50:38.788Z,930.26
2017-02-24T02:51:06.757Z,930.24
2017-02-24T02:51:34.871Z,930.29
2017-02-24T02:52:02.964Z,930.27
2017-02-24T02:52:31.020Z,930.31
2017-02-24T02:52:59.093Z,930.29
2017-02-24T02:53:27.251Z,930.28
2017-02-24T02:53:55.428Z,930.3
2017-02-24T02:54:23.864Z,930.32
2017-02-24T02:54:51.987Z,930.29
2017-02-24T02:55:19.983Z,930.37
2017-02-24T02:55:47.947Z,930.34
2017-02-24T02:56:16.030Z,930.31
2017-02-24T02:56:44.234Z,930.37
2017-02-24T02:57:12.276Z,930.32
2017-02-24T02:57:40.515Z,930.38
2017-02-24T02:58:08.597Z,930.34
2017-02-24T02:58:36.793Z,930.34
2017-02-24T02:59:04.990Z,930.32
2017-02-24T02:59:33.065Z,930.3
2017-02-24T03:00:01.109Z,930.27
2017-02-24T03:00:29.261Z,930.33
2017-02-24T03:00:57.478Z,930.31
2017-02-24T03:01:25.700Z,930.32
2017-02-24T03:01:53.924Z,930.34
2017-02-24T03:02:22.174Z,930.29
2017-02-24T03:02:50.303Z,930.23
2017-02-24T03:03:18.509Z,930.35
2017-02-24T03:03:46.613Z,930.19
2017-02-24T03:04:14.559Z,930.25
2017-02-24T03:04:42.645Z,930.24
2017-02-24T03:05:10.919Z,930.24
2017-02-24T03:05:39.070Z,930.26
2017-02-24T03:06:07.184Z,930.3
2017-02-24T03:06:35.286Z,930.25
2017-02-24T03:07:03.250Z,930.23
2017-02-24T03:07:31.212Z,930.25
2017-02-24T03:07:59.388Z,930.25
2017-02-24T03:08:27.374Z,930.23
2017-02-24T03:08:55.564Z,930.22
2017-02-24T03:09:23.947Z,930.18
2017-02-24T03:09:52.206Z,930.16
2017-02-24T03:10:20.151Z,930.12
2017-02-24T03:10:48.288Z,930.13
2017-02-24T03:11:16.513Z,930.15
2017-02-24T03:11:44.520Z,930.14
2017-02-24T03:12:12.665Z,930.12
2017-02-24T03:12:40.918Z,930.13
2017-02-24T03:13:09.128Z,930.09
2017-02-24T03:13:37.238Z,930.11
2017-02-24T03:14:05.219Z,930.12
2017-02-24T03:14:33.403Z,930.15
2017-02-24T03:15:01.426Z,930.14
2017-02-24T03:15:29.359Z,930.12
2017-02-24T03:15:57.311Z,930.14
2017-02-24T03:16:25.526Z,930.17
2017-02-24T03:16:53.601Z,930.17
2017-02-24T03:17:21.747Z,930.16
2017-02-24T03:17:49.802Z,930.16
2017-02-24T03:18:17.928Z,930.15
2017-02-24T03:18:46.109Z,930.18
2017-02-24T03:19:14.360Z,930.16
2017-02-24T03:19:42.511Z,930.23
2017-02-24T03:20:10.698Z,930.17
2017-02-24T03:20:38.892Z,930.18
2017-02-24T03:21:06.979Z,930.18
2017-02-24T03:21:35.085Z,930.14
2017-02-24T03:22:03.261Z,930.12
2017-02-24T03:22:31.383Z,930.14
2017-02-24T03:22:59.515Z,930.15
2017-02-24T03:23:27.624Z,930.11
2017-02-24T03:23:55.732Z,930.1
2017-02-24T03:24:23.968Z,930.05
2017-02-24T03:24:52.134Z,930.06
2017-02-24T03:25:20.232Z,930.03
2017-02-24T03:25:48.359Z,930
2017-02-24T03:26:16.537Z,930.01
2017-02-24T03:26:44.586Z,929.98
2017-02-24T03:27:12.552Z,929.99
2017-02-24T03:27:40.818Z,929.95
2017-02-24T03:28:09.002Z,929.92
2017-02-24T03:28:37.010Z,929.9
2017-02-24T03:29:05.335Z,929.82
2017-02-24T03:29:33.416Z,929.85
2017-02-24T03:30:01.466Z,929.79
2017-02-24T03:30:29.585Z,929.8
2017-02-24T03:30:57.547Z,929.73
2017-02-24T03:31:25.682Z,929.76
2017-02-24T03:31:53.767Z,929.77
2017-02-24T03:32:21.786Z,929.79
2017-02-24T03:32:49.910Z,929.76
2017-02-24T03:33:18.059Z,929.74
2017-02-24T03:33:46.052Z,929.76
2017-02-24T03:34:14.094Z,929.76
2017-02-24T03:34:42.324Z,929.74
2017-02-24T03:35:10.335Z,929.72
2017-02-24T03:35:38.486Z,929.76
2017-02-24T03:36:06.714Z,929.75
2017-02-24T03:36:34.940Z,929.7
2017-02-24T03:37:02.795Z,929.68
2017-02-24T03:37:30.760Z,929.7
2017-02-24T03:37:59.115Z,929.7
2017-02-24T03:38:27.297Z,929.69
2017-02-24T03:38:55.469Z,929.75
2017-02-24T03:39:23.892Z,929.71
2017-02-24T03:39:52.021Z,929.72
2017-02-24T03:40:20.024Z,929.71
2017-02-24T03:40:48.254Z,929.7
2017-02-24T03:41:16.382Z,929.67
2017-02-24T03:41:44.597Z,929.68
2017-02-24T03:42:12.726Z,929.68
2017-02-24T03:42:40.947Z,929.68
2017-02-24T03:43:09.017Z,929.72
2017-02-24T03:43:37.114Z,929.68
2017-02-24T03:44:05.098Z,929.71
2017-02-24T03:44:33.428Z,929.68
2017-02-24T03:45:01.572Z,929.68
2017-02-24T03:45:29.802Z,929.72
2017-02-24T03:45:57.874Z,929.7
2017-02-24T03:46:26.305Z,929.66
2017-02-24T03:46:54.164Z,929.72
2017-02-24T03:47:22.360Z,929.68
2017-02-24T03:47:50.591Z,929.71
2017-02-24T03:48:18.692Z,929.74
2017-02-24T03:48:46.701Z,929.72
2017-02-24T03:49:14.825Z,929.72
2017-02-24T03:49:42.940Z,929.72
2017-02-24T03:50:11.147Z,929.74
2017-02-24T03:50:39.181Z,929.71
2017-02-24T03:51:07.275Z,929.72
2017-02-24T03:51:35.316Z,929.74
2017-02-24T03:52:03.421Z,929.68
2017-02-24T03:52:31.538Z,929.71
2017-02-24T03:52:59.515Z,929.62
2017-02-24T03:53:27.552Z,929.66
2017-02-24T03:53:55.891Z,929.68
2017-02-24T03:54:24.029Z,929.65
2017-02-24T03:54:52.382Z,929.63
2017-02-24T03:55:20.745Z,929.64
2017-02-24T03:55:48.667Z,929.65
2017-02-24T03:56:16.858Z,929.6
2017-02-24T03:56:44.961Z,929.66
2017-02-24T03:57:13.219Z,929.64
2017-02-24T03:57:41.353Z,929.67
2017-02-24T03:58:09.470Z,929.67
2017-02-24T03:58:37.482Z,929.62
2017-02-24T03:59:05.859Z,929.66
2017-02-24T03:59:33.795Z,929.66
2017-02-24T04:00:01.968Z,929.65
2017-02-24T04:00:30.142Z,929.64
2017-02-24T04:00:58.472Z,929.62
2017-02-24T04:01:26.506Z,929.67
2017-02-24T04:01:54.656Z,929.59
2017-02-24T04:02:22.765Z,929.59
2017-02-24T04:02:50.892Z,929.59
2017-02-24T04:03:18.951Z,929.55
2017-02-24T04:03:47.440Z,929.58
2017-02-24T04:04:15.636Z,929.56
2017-02-24T04:04:43.931Z,929.53
2017-02-24T04:05:11.968Z,929.53
2017-02-24T04:05:39.860Z,929.51
2017-02-24T04:06:08.195Z,929.51
2017-02-24T04:06:36.182Z,929.53
2017-02-24T04:07:04.315Z,929.49
2017-02-24T04:07:32.618Z,929.56
2017-02-24T04:08:00.823Z,929.55
2017-02-24T04:08:28.785Z,929.57
2017-02-24T04:08:57.006Z,929.59
2017-02-24T04:09:25.235Z,929.57
2017-02-24T04:09:53.520Z,929.59
2017-02-24T04:10:21.391Z,929.65
2017-02-24T04:10:49.501Z,929.65
2017-02-24T04:11:17.940Z,929.64
2017-02-24T04:11:46.110Z,929.68
2017-02-24T04:12:14.260Z,929.71
2017-02-24T04:12:42.514Z,929.68
2017-02-24T04:13:10.580Z,929.69
2017-02-24T04:13:38.686Z,929.66
2017-02-24T04:14:06.843Z,929.69
2017-02-24T04:14:34.678Z,929.67
2017-02-24T04:15:03.052Z,929.69
2017-02-24T04:15:31.197Z,929.66
2017-02-24T04:15:59.438Z,929.68
2017-02-24T04:16:27.602Z,929.69
2017-02-24T04:16:55.712Z,929.7
2017-02-24T04:17:23.718Z,929.65
2017-02-24T04:17:51.820Z,929.63
2017-02-24T04:18:19.910Z,929.68
2017-02-24T04:18:47.983Z,929.68
2017-02-24T04:19:15.872Z,929.67
2017-02-24T04:19:44.284Z,929.66
2017-02-24T04:20:12.656Z,929.67
2017-02-24T04:20:40.907Z,929.64
2017-02-24T04:21:09.045Z,929.65
2017-02-24T04:21:37.067Z,929.63
2017-02-24T04:22:05.110Z,929.62
2017-02-24T04:22:33.319Z,929.61
2017-02-24T04:23:01.723Z,929.61
2017-02-24T04:23:29.948Z,929.57
2017-02-24T04:23:58.003Z,929.55
2017-02-24T04:24:26.309Z,929.55
2017-02-24T04:24:54.457Z,929.57
2017-02-24T04:25:22.782Z,929.56
2017-02-24T04:25:50.943Z,929.53
2017-02-24T04:26:19.407Z,929.52
2017-02-24T04:26:47.540Z,929.49
2017-02-24T04:27:15.615Z,929.48
2017-02-24T04:27:43.941Z,929.49
2017-02-24T04:28:11.985Z,929.52
2017-02-24T04:28:39.914Z,929.44
2017-02-24T04:29:08.050Z,929.47
2017-02-24T04:29:36.236Z,929.45
2017-02-24T04:30:04.292Z,929.49
2017-02-24T04:30:32.382Z,929.47
2017-02-24T04:31:00.528Z,929.46
2017-02-24T04:31:28.711Z,929.5
2017-02-24T04:31:56.878Z,929.48
2017-02-24T04:32:24.967Z,929.47
2017-02-24T04:32:52.987Z,929.49
2017-02-24T04:33:21.080Z,929.5
2017-02-24T04:33:49.105Z,929.45
2017-02-24T04:34:17.343Z,929.5
2017-02-24T04:34:45.628Z,929.5
2017-02-24T04:35:14.092Z,929.5
2017-02-24T04:35:42.145Z,929.48
2017-02-24T04:36:10.310Z,929.49
2017-02-24T04:36:38.470Z,929.48
2017-02-24T04:37:06.468Z,929.47
2017-02-24T04:37:34.361Z,929.5
2017-02-24T04:38:02.380Z,929.51
2017-02-24T04:38:30.499Z,929.52
2017-02-24T04:38:58.547Z,929.5
2017-02-24T04:39:26.606Z,929.51
2017-02-24T04:39:54.751Z,929.49
2017-02-24T04:40:23.198Z,929.49
2017-02-24T04:40:51.313Z,929.49
2017-02-24T04:41:19.529Z,929.48
2017-02-24T04:41:47.615Z,929.45
2017-02-24T04:42:15.749Z,929.45
2017-02-24T04:42:43.915Z,929.43
2017-02-24T04:43:12.178Z,929.42
2017-02-24T04:43:40.118Z,929.39
2017-02-24T04:44:08.115Z,929.38
2017-02-24T04:44:36.156Z,929.33
2017-02-24T04:45:04.238Z,929.36
2017-02-24T04:45:32.760Z,929.35
2017-02-24T04:46:00.909Z,929.34
2017-02-24T04:46:29.032Z,929.37
2017-02-24T04:46:57.407Z,929.3
2017-02-24T04:47:25.554Z,929.29
2017-02-24T04:47:53.685Z,929.29
2017-02-24T04:48:21.859Z,929.27
2017-02-24T04:48:50.170Z,929.24
2017-02-24T04:49:18.272Z,929.27
2017-02-24T04:49:46.204Z,929.24
2017-02-24T04:50:14.612Z,929.26
2017-02-24T04:50:42.739Z,929.27
2017-02-24T04:51:10.894Z,929.22
2017-02-24T04:51:39.115Z,929.29
2017-02-24T04:52:07.232Z,929.22
2017-02-24T04:52:35.356Z,929.22
2017-02-24T04:53:03.350Z,929.22
2017-02-24T04:53:31.276Z,929.2
2017-02-24T04:53:59.656Z,929.2
2017-02-24T04:54:27.769Z,929.24
2017-02-24T04:54:56.021Z,929.21
2017-02-24T04:55:24.380Z,929.24
2017-02-24T04:55:52.587Z,929.27
2017-02-24T04:56:20.651Z,929.23
2017-02-24T04:56:48.682Z,929.24
2017-02-24T04:57:16.776Z,929.22
2017-02-24T04:57:44.812Z,929.2
2017-02-24T04:58:12.949Z,929.2
2017-02-24T04:58:41.173Z,929.17
2017-02-24T04:59:09.302Z,929.22
2017-02-24T04:59:37.249Z,929.2
2017-02-24T05:00:05.399Z,929.2
2017-02-24T05:00:33.608Z,929.18
2017-02-24T05:01:02.115Z,929.21
2017-02-24T05:01:30.137Z,929.16
2017-02-24T05:01:58.204Z,929.18
2017-02-24T05:02:26.372Z,929.2
2017-02-24T05:02:54.621Z,929.19
2017-02-24T05:03:22.743Z,929.22
2017-02-24T05:03:50.887Z,929.16
2017-02-24T05:04:19.128Z,929.21
2017-02-24T05:04:47.287Z,929.18
2017-02-24T05:05:15.401Z,929.21
2017-02-24T05:05:43.648Z,929.21
2017-02-24T05:06:11.823Z,929.23
2017-02-24T05:06:39.918Z,929.22
2017-02-24T05:07:08.149Z,929.21
2017-02-24T05:07:36.114Z,929.25
2017-02-24T05:08:04.152Z,929.23
2017-02-24T05:08:32.189Z,929.17
2017-02-24T05:09:00.314Z,929.19
2017-02-24T05:09:28.399Z,929.14
2017-02-24T05:09:56.430Z,929.11
2017-02-24T05:10:24.596Z,929.1
2017-02-24T05:10:52.926Z,929.09
2017-02-24T05:11:21.029Z,929.09
2017-02-24T05:11:49.209Z,929.08
2017-02-24T05:12:17.237Z,929.05
2017-02-24T05:12:45.528Z,929.07
2017-02-24T05:13:13.771Z,929.03
2017-02-24T05:13:42.003Z,929.02
2017-02-24T05:14:10.060Z,929.02
2017-02-24T05:14:38.465Z,929.02
2017-02-24T05:15:06.500Z,928.98
2017-02-24T05:15:34.592Z,928.96
2017-02-24T05:16:02.783Z,928.98
2017-02-24T05:16:30.879Z,929
2017-02-24T05:16:58.979Z,928.94
2017-02-24T05:17:27.000Z,928.95
2017-02-24T05:17:55.049Z,928.94
2017-02-24T05:18:23.157Z,928.92
2017-02-24T05:18:51.349Z,928.93
2017-02-24T05:19:19.439Z,928.94
2017-02-24T05:19:47.492Z,928.92
2017-02-24T05:20:15.641Z,928.96
2017-02-24T05:20:44.076Z,928.95
2017-02-24T05:21:12.245Z,928.92
2017-02-24T05:21:40.376Z,928.98
2017-02-24T05:22:08.612Z,928.95
2017-02-24T05:22:36.670Z,928.97
2017-02-24T05:23:04.767Z,928.97
2017-02-24T05:23:33.003Z,928.94
2017-02-24T05:24:01.146Z,928.93
2017-02-24T05:24:29.362Z,928.99
2017-02-24T05:24:57.493Z,928.99
2017-02-24T05:25:25.506Z,929.01
2017-02-24T05:25:53.644Z,929.05
2017-02-24T05:26:21.697Z,929.05
2017-02-24T05:26:49.668Z,929.06
2017-02-24T05:27:17.700Z,929.07
2017-02-24T05:27:45.846Z,929.1
2017-02-24T05:28:14.063Z,929.1
2017-02-24T05:28:42.161Z,929.11
2017-02-24T05:29:10.219Z,929.14
2017-02-24T05:29:38.408Z,929.17
2017-02-24T05:30:06.616Z,929.15
2017-02-24T05:30:34.746Z,929.2
2017-02-24T05:31:03.215Z,929.23
2017-02-24T05:31:31.219Z,929.26
2017-02-24T05:31:59.300Z,929.25
2017-02-24T05:32:27.493Z,929.27
2017-02-24T05:32:55.685Z,929.25
2017-02-24T05:33:23.815Z,929.24
2017-02-24T05:33:51.970Z,929.26
2017-02-24T05:34:19.909Z,929.23
2017-02-24T05:34:48.151Z,929.25
2017-02-24T05:35:16.217Z,929.25
2017-02-24T05:35:44.339Z,929.21
2017-02-24T05:36:12.523Z,929.24
2017-02-24T05:36:40.693Z,929.26
2017-02-24T05:37:08.831Z,929.2
2017-02-24T05:37:36.856Z,929.26
2017-02-24T05:38:05.073Z,929.19
2017-02-24T05:38:33.132Z,929.2
2017-02-24T05:39:01.211Z,929.18
2017-02-24T05:39:29.338Z,929.16
2017-02-24T05:39:57.477Z,929.17
2017-02-24T05:40:25.555Z,929.14
2017-02-24T05:40:53.655Z,929.09
2017-02-24T05:41:21.709Z,929.09
2017-02-24T05:41:49.901Z,929.07
2017-02-24T05:42:18.100Z,929.04
2017-02-24T05:42:45.942Z,929
2017-02-24T05:43:14.132Z,928.99
2017-02-24T05:43:42.423Z,928.95
2017-02-24T05:44:10.535Z,928.95
2017-02-24T05:44:38.749Z,928.94
2017-02-24T05:45:06.981Z,928.93
2017-02-24T05:45:35.039Z,928.88
2017-02-24T05:46:03.129Z,928.87
2017-02-24T05:46:31.254Z,928.86
2017-02-24T05:46:59.375Z,928.87
2017-02-24T05:47:27.575Z,928.84
2017-02-24T05:47:55.735Z,928.8
2017-02-24T05:48:23.929Z,928.84
2017-02-24T05:48:51.986Z,928.84
2017-02-24T05:49:20.126Z,928.84
2017-02-24T05:49:47.977Z,928.83
2017-02-24T05:50:16.024Z,928.83
2017-02-24T05:50:44.276Z,928.83
2017-02-24T05:51:12.440Z,928.81
2017-02-24T05:51:40.525Z,928.82
2017-02-24T05:52:08.812Z,928.78